Time;durP1;ratioP1;P1;durP2;ratioP2;P2;SDS_P1;SDS_P2;PMS_P1;PMS_P2;Temp;Humidity;BMP_temperature;BMP_pressure;BME280_temperature;BME280_humidity;BME280_pressure;Samples;Min_cycle;Max_cycle;Signal;HPM_P1;HPM_P2
2022/05/15 00:00:40;;;;;;;7.50;3.10;;;;;;;;;;21010023;28;20372;-60
2022/05/15 00:10:44;;;;;;;8.20;3.25;;;;;;;;;;21008388;28;20496;-60
2022/05/15 00:20:46;;;;;;;10.15;3.67;;;;;;;;;;20991102;28;20044;-71
2022/05/15 00:30:49;;;;;;;7.40;3.05;;;;;;;;;;21005670;28;20052;-60
2022/05/15 00:40:52;;;;;;;8.25;3.13;;;;;;;;;;21007442;28;20052;-73
2022/05/15 00:50:54;;;;;;;13.03;4.77;;;;;;;;;;21004634;28;20457;-75
2022/05/15 01:00:56;;;;;;;8.60;3.47;;;;;;;;;;21005546;28;20453;-64
2022/05/15 01:11:01;;;;;;;7.17;3.17;;;;;;;;;;20985290;28;20064;-62
2022/05/15 01:21:24;;;;;;;7.22;3.00;;;;;;;;;;21002636;28;20308;-72
2022/05/15 01:31:31;;;;;;;7.90;3.05;;;;;;;;;;21001448;28;20048;-70
2022/05/15 01:41:37;;;;;;;9.80;3.92;;;;;;;;;;20999959;28;20404;-71
2022/05/15 01:51:45;;;;;;;8.20;3.42;;;;;;;;;;21000463;28;20052;-72
2022/05/15 02:01:59;;;;;;;7.72;3.63;;;;;;;;;;20999753;28;20052;-70
2022/05/15 02:12:12;;;;;;;10.32;2.83;;;22.30;49.20;;;;;;20998044;28;20105;-73
2022/05/15 02:22:33;;;;;;;9.10;4.35;;;21.80;50.50;;;;;;20998393;28;20067;-72
2022/05/15 02:32:54;;;;;;;12.95;3.60;;;21.60;51.10;;;;;;20996354;28;20048;-67
2022/05/15 02:43:03;;;;;;;16.70;4.70;;;21.40;51.10;;;;;;20996632;28;20083;-72
2022/05/15 02:53:19;;;;;;;14.50;4.32;;;21.30;50.40;;;;;;20995579;28;20068;-72
2022/05/15 03:03:35;;;;;;;11.73;3.63;;;21.30;49.30;;;;;;20995007;28;20049;-73
2022/05/15 03:13:51;;;;;;;12.75;4.20;;;21.20;48.40;;;;;;20994942;28;20061;-68
2022/05/15 03:24:03;;;;;;;11.38;4.63;;;21.20;48.20;;;;;;20993967;28;20052;-73
2022/05/15 03:34:12;;;;;;;12.88;4.50;;;21.10;49.10;;;;;;20993911;28;20090;-75
2022/05/15 03:44:18;;;;;;;11.05;3.78;;;21.00;49.00;;;;;;20994218;28;20070;-71
2022/05/15 03:54:24;;;;;;;18.20;5.38;;;21.20;47.80;;;;;;20994863;28;20144;-74
2022/05/15 04:04:29;;;;;;;14.52;4.65;;;20.90;47.90;;;;;;20992679;28;20052;-60
2022/05/15 04:14:34;;;;;;;13.02;4.20;;;20.70;48.30;;;;;;21007405;28;20489;-73
2022/05/15 04:24:37;;;;;;;;;;;20.60;48.50;;;;;;21008672;28;20052;-67
2022/05/15 04:34:41;;;;;;;16.15;4.55;;;20.50;48.50;;;;;;21007138;28;20276;-68
2022/05/15 04:44:45;;;;;;;8.90;3.80;;;20.50;48.70;;;;;;21005007;28;20052;-63
2022/05/15 04:54:48;;;;;;;29.70;4.70;;;20.40;48.90;;;;;;21004802;28;20538;-59
2022/05/15 05:04:50;;;;;;;8.63;3.63;;;20.30;49.30;;;;;;21004499;28;20386;-72
2022/05/15 05:14:52;;;;;;;8.40;4.63;;;20.20;49.90;;;;;;21002774;28;20098;-67
2022/05/15 05:24:54;;;;;;;16.50;5.03;;;20.20;50.10;;;;;;21002934;28;20485;-61
2022/05/15 05:34:56;;;;;;;12.15;5.28;;;20.10;50.30;;;;;;21002576;28;20048;-61
2022/05/15 05:44:58;;;;;;;11.23;4.40;;;20.20;50.40;;;;;;21002011;28;20053;-70
2022/05/15 05:55:00;;;;;;;11.60;5.10;;;20.10;50.30;;;;;;21001119;28;20058;-60
2022/05/15 06:05:03;;;;;;;16.23;4.78;;;20.00;50.80;;;;;;20999183;28;20094;-63
2022/05/15 06:15:08;;;;;;;11.05;4.93;;;20.10;51.30;;;;;;20998111;28;20088;-60
2022/05/15 06:25:10;;;;;;;20.05;5.65;;;20.10;51.80;;;;;;20997086;28;20147;-68
2022/05/15 06:35:14;;;;;;;11.20;5.40;;;20.20;51.50;;;;;;20996540;28;20416;-61
2022/05/15 06:45:17;;;;;;;10.13;4.28;;;;;;;;;;20995516;28;20405;-58
2022/05/15 06:55:20;;;;;;;11.75;4.82;;;;;;;;;;20995328;28;20499;-58
2022/05/15 07:05:24;;;;;;;17.10;5.85;;;;;;;;;;20994536;28;20051;-73
2022/05/15 07:15:26;;;;;;;16.73;5.07;;;;;;;;;;20994312;28;20053;-72
2022/05/15 07:25:28;;;;;;;16.77;5.20;;;;;;;;;;20994736;28;20485;-73
2022/05/15 07:35:31;;;;;;;13.05;4.80;;;;;;;;;;20976866;28;20501;-69
2022/05/15 07:45:33;;;;;;;14.17;4.50;;;;;;;;;;21005071;28;20044;-61
2022/05/15 07:55:35;;;;;;;13.80;4.70;;;;;;;;;;21009801;28;20079;-61
2022/05/15 08:15:58;;;;;;;12.23;5.40;;;;;;;;;;21006735;28;20064;-59
2022/05/15 08:26:00;;;;;;;19.13;5.43;;;;;;;;;;20994406;28;20056;-57
2022/05/15 08:36:02;;;;;;;15.52;5.07;;;;;;;;;;20951609;28;20049;-58
2022/05/15 08:46:14;;;;;;;15.07;5.70;;;;;;;;;;20920333;28;20053;-60
2022/05/15 08:56:17;;;;;;;14.32;5.38;;;;;;;;;;20918968;28;20049;-62
2022/05/15 09:06:36;;;;;;;21.20;7.20;;;;;;;;;;20921409;28;20092;-55
2022/05/15 09:16:42;;;;;;;12.05;4.80;;;;;;;;;;20954215;28;20903;-59
2022/05/15 09:26:45;;;;;;;11.57;5.63;;;;;;;;;;20924420;28;20128;-59
2022/05/15 09:36:48;;;;;;;11.25;6.15;;;;;;;;;;20918222;28;20088;-55
2022/05/15 09:46:57;;;;;;;12.95;5.20;;;;;;;;;;20931545;28;20055;-60
2022/05/15 09:57:10;;;;;;;18.00;4.90;;;;;;;;;;20999333;28;20052;-57
2022/05/15 10:07:28;;;;;;;11.68;4.93;;;;;;;;;;20989402;28;20140;-57
2022/05/15 10:17:31;;;;;;;11.45;4.75;;;;;;;;;;20995783;28;20446;-59
2022/05/15 10:27:36;;;;;;;13.65;5.03;;;;;;;;;;20952407;28;20378;-56
2022/05/15 10:37:47;;;;;;;17.92;5.20;;;;;;;;;;20897079;28;20080;-57
2022/05/15 10:47:59;;;;;;;16.00;5.13;;;;;;;;;;20912596;28;20053;-57
2022/05/15 10:58:07;;;;;;;10.93;5.17;;;;;;;;;;20948769;28;20052;-57
2022/05/15 11:08:12;;;;;;;16.50;4.25;;;;;;;;;;20994665;28;20080;-56
2022/05/15 11:18:14;;;;;;;13.30;4.07;;;;;;;;;;20993756;28;20136;-58
2022/05/15 11:28:34;;;;;;;9.07;4.35;;;;;;;;;;20994044;28;20140;-58
2022/05/15 11:38:48;;;;;;;12.13;5.43;;;;;;;;;;20993474;28;20106;-57
2022/05/15 11:48:51;;;;;;;10.77;4.68;;;;;;;;;;20993128;28;20394;-59
2022/05/15 11:59:05;;;;;;;10.02;4.65;;;;;;;;;;20992149;28;20473;-57
2022/05/15 12:09:17;;;;;;;10.23;4.53;;;;;;;;;;20991121;28;20056;-57
2022/05/15 12:19:20;;;;;;;;;;;;;;;;;;20974408;28;20041;-61
2022/05/15 12:29:22;;;;;;;9.93;4.35;;;;;;;;;;20985474;28;19935;-58
2022/05/15 12:39:26;;;;;;;10.40;4.65;;;;;;;;;;21006223;28;20067;-60
2022/05/15 12:49:33;;;;;;;13.00;6.70;;;;;;;;;;21004163;28;20404;-60
2022/05/15 12:59:38;;;;;;;18.25;8.90;;;;;;;;;;21004106;28;20057;-59
2022/05/15 13:09:40;;;;;;;10.93;3.95;;;;;;;;;;21004128;28;20052;-57
2022/05/15 13:19:45;;;;;;;8.32;3.30;;;;;;;;;;20986376;28;20057;-60
2022/05/15 13:29:47;;;;;;;13.55;4.25;;;;;;;;;;21002160;28;20058;-60
2022/05/15 13:50:30;;;;;;;14.00;6.90;;;;;;;;;;21000395;28;20048;-59
2022/05/15 14:00:34;;;;;;;13.40;3.60;;;;;;;;;;20999227;28;20551;-61
2022/05/15 14:10:36;;;;;;;10.93;6.43;;;;;;;;;;20997846;28;20056;-58
2022/05/15 14:20:43;;;;;;;9.02;3.42;;;;;;;;;;20998208;28;20049;-60
2022/05/15 14:30:46;;;;;;;10.10;4.43;;;;;;;;;;20997727;28;20049;-60
2022/05/15 14:40:48;;;;;;;13.88;5.68;;;;;;;;;;20997188;28;20477;-58
2022/05/15 14:50:50;;;;;;;9.98;3.58;;;;;;;;;;20995580;28;20087;-58
2022/05/15 15:00:53;;;;;;;6.93;2.90;;;;;;;;;;20993652;28;20048;-59
2022/05/15 15:11:10;;;;;;;7.07;4.00;;;;;;;;;;20993803;28;20064;-59
2022/05/15 15:21:12;;;;;;;8.07;4.22;;;;;;;;;;20993018;28;20052;-59
2022/05/15 15:31:14;;;;;;;13.25;4.35;;;;;;;;;;20994088;28;20421;-59
2022/05/15 15:41:17;;;;;;;7.82;3.50;;;;;;;;;;20993109;28;20083;-60
2022/05/15 15:51:31;;;;;;;9.93;3.42;;;;;;;;;;20991750;28;20110;-59
2022/05/15 16:01:35;;;;;;;7.90;3.40;;;;;;;;;;20995446;28;20072;-60
2022/05/15 16:11:47;;;;;;;9.40;3.28;;;;;;;;;;21008614;28;20558;-59
2022/05/15 16:21:52;;;;;;;10.18;3.42;;;;;;;;;;21007791;28;20051;-60
2022/05/15 16:31:54;;;;;;;9.13;3.03;;;;;;;;;;21004028;28;20053;-59
2022/05/15 16:41:56;;;;;;;13.63;3.13;;;;;;;;;;21005383;28;20048;-59
2022/05/15 16:51:58;;;;;;;8.93;4.13;;;;;;;;;;21004651;28;20408;-60
2022/05/15 17:02:00;;;;;;;5.97;2.95;;;;;;;;;;21005140;28;20187;-59
2022/05/15 17:12:02;;;;;;;8.93;3.55;;;;;;;;;;21002214;28;20056;-58
2022/05/15 17:22:04;;;;;;;11.30;4.80;;;;;;;;;;21002778;28;20409;-59
2022/05/15 17:42:29;;;;;;;11.70;4.00;;;;;;;;;;21000854;28;20098;-61
2022/05/15 17:52:31;;;;;;;8.55;4.25;;;;;;;;;;20999663;28;20055;-61
2022/05/15 18:02:34;;;;;;;18.48;7.13;;;;;;;;;;20999864;28;20052;-59
2022/05/15 18:12:36;;;;;;;6.72;3.13;;;;;;;;;;20998572;28;20052;-60
2022/05/15 18:22:38;;;;;;;11.18;4.50;;;;;;;;;;20998726;28;20048;-59
2022/05/15 18:32:41;;;;;;;12.50;4.95;;;;;;;;;;20995896;28;20053;-59
2022/05/15 18:42:45;;;;;;;10.18;4.38;;;;;;;;;;20996259;28;20067;-59
2022/05/15 19:03:08;;;;;;;12.27;4.40;;;;;;;;;;20995138;28;20048;-64
2022/05/15 19:13:10;;;;;;;13.48;6.10;;;;;;;;;;20994760;28;20084;-60
2022/05/15 19:23:12;;;;;;;10.18;5.47;;;;;;;;;;20995987;28;20049;-58
2022/05/15 19:33:14;;;;;;;10.00;4.43;;;;;;;;;;20993347;28;20052;-61
2022/05/15 19:43:17;;;;;;;9.02;4.15;;;;;;;;;;21008186;28;20297;-61
2022/05/15 19:53:20;;;;;;;8.27;3.47;;;;;;;;;;21009848;28;20044;-58
2022/05/15 20:03:22;;;;;;;13.75;4.55;;;;;;;;;;21007703;28;20182;-58
2022/05/15 20:13:24;;;;;;;8.07;4.07;;;;;;;;;;21006177;28;20052;-56
2022/05/15 20:23:27;;;;;;;;;;;;;;;;;;21007604;28;20102;-60
2022/05/15 20:33:29;;;;;;;9.85;4.32;;;;;;;;;;20989795;28;19922;-61
2022/05/15 20:43:31;;;;;;;9.63;4.75;;;;;;;;;;21007219;28;20473;-62
2022/05/15 20:53:36;;;;;;;12.05;4.68;;;;;;;;;;21005581;28;20080;-72
2022/05/15 21:03:39;;;;;;;8.23;4.95;;;;;;;;;;21005045;28;20048;-70
2022/05/15 21:13:41;;;;;;;12.80;4.68;;;;;;;;;;20986222;28;20477;-72
2022/05/15 21:23:44;;;;;;;7.80;3.88;;;;;;;;;;21003317;28;20049;-61
2022/05/15 21:33:46;;;;;;;9.23;3.70;;;;;;;;;;21002265;28;20051;-61
2022/05/15 21:43:49;;;;;;;;;;;;;;;;;;21002159;28;20051;-60
2022/05/15 21:53:52;;;;;;;9.32;4.18;;;;;;;;;;21001072;28;20288;-61
2022/05/15 22:03:54;;;;;;;9.40;4.30;;;;;;;;;;20999876;28;20056;-60
2022/05/15 22:13:56;;;;;;;13.70;7.03;;;;;;;;;;20999517;28;20083;-72
2022/05/15 22:24:05;;;;;;;11.82;5.70;;;;;;;;;;20997102;28;20474;-62
2022/05/15 22:34:06;;;;;;;10.52;4.47;;;;;;;;;;20997041;28;20044;-72
2022/05/15 22:44:09;;;;;;;13.05;6.82;;;;;;;;;;20979176;28;20049;-59
2022/05/15 22:54:11;;;;;;;12.83;4.30;;;;;;;;;;20997048;28;20052;-71
2022/05/15 23:04:13;;;;;;;7.63;3.70;;;;;;;;;;20996956;28;20285;-59
2022/05/15 23:14:15;;;;;;;8.13;4.03;;;;;;;;;;20994845;28;20064;-70
2022/05/15 23:24:18;;;;;;;9.55;4.15;;;;;;;;;;20996371;28;20373;-67
2022/05/15 23:34:20;;;;;;;12.52;5.57;;;;;;;;;;20995477;28;20503;-64
2022/05/15 23:44:22;;;;;;;12.23;4.47;;;;;;;;;;20993815;28;20076;-73
2022/05/15 23:54:24;;;;;;;11.05;4.47;;;;;;;;;;20994334;28;20052;-64
